createdAt,value
2022-10-28T00:00:54.900Z,11.64
2022-10-28T00:03:23.051Z,11.57
2022-10-28T00:05:51.047Z,11.60
2022-10-28T00:08:19.162Z,11.66
2022-10-28T00:10:47.237Z,11.60
2022-10-28T00:13:16.600Z,11.58
2022-10-28T00:15:44.585Z,11.64
2022-10-28T00:18:12.538Z,11.74
2022-10-28T00:20:40.564Z,11.79
2022-10-28T00:23:08.812Z,11.72
2022-10-28T00:25:36.828Z,11.53
2022-10-28T00:28:04.849Z,11.52
2022-10-28T00:30:34.180Z,11.66
2022-10-28T00:33:02.193Z,11.74
2022-10-28T00:35:30.134Z,11.71
2022-10-28T00:37:58.091Z,11.50
2022-10-28T00:40:26.076Z,11.61
2022-10-28T00:42:54.389Z,11.66
2022-10-28T00:45:22.877Z,11.64
2022-10-28T00:47:56.096Z,11.67
2022-10-28T00:50:40.989Z,11.64
2022-10-28T00:53:14.389Z,11.54
2022-10-28T00:55:44.235Z,11.51
2022-10-28T00:58:13.257Z,11.47
2022-10-28T01:00:41.634Z,11.46
2022-10-28T01:03:11.082Z,11.42
2022-10-28T01:05:43.310Z,11.44
2022-10-28T01:08:12.158Z,11.02
2022-10-28T01:10:55.291Z,11.29
2022-10-28T01:13:34.733Z,11.18
2022-10-28T01:16:09.107Z,11.15
2022-10-28T01:18:48.798Z,11.08
2022-10-28T01:21:37.697Z,11.00
2022-10-28T01:24:19.135Z,10.92
2022-10-28T01:27:05.636Z,10.68
2022-10-28T01:30:09.445Z,10.72
2022-10-28T01:32:50.086Z,10.56
2022-10-28T01:35:25.087Z,10.57
2022-10-28T01:38:03.554Z,10.30
2022-10-28T01:40:36.250Z,10.18
2022-10-28T01:43:13.535Z,10.10
2022-10-28T01:45:49.765Z,10.09
2022-10-28T01:48:22.542Z,10.31
2022-10-28T01:50:56.799Z,10.33
2022-10-28T01:53:28.979Z,10.35
2022-10-28T01:56:00.823Z,10.38
2022-10-28T01:58:31.754Z,10.42
2022-10-28T02:01:02.062Z,10.44
2022-10-28T02:03:31.527Z,10.46
2022-10-28T02:06:02.755Z,10.42
2022-10-28T02:08:45.339Z,10.41
2022-10-28T02:11:26.657Z,10.36
2022-10-28T02:14:05.066Z,10.27
2022-10-28T02:16:44.650Z,10.23
2022-10-28T02:19:20.069Z,10.16
2022-10-28T02:21:56.498Z,10.14
2022-10-28T02:24:34.387Z,10.08
2022-10-28T02:27:12.410Z,10.03
2022-10-28T02:29:47.354Z,9.99
2022-10-28T02:32:18.994Z,9.90
2022-10-28T02:34:52.582Z,9.91
2022-10-28T02:37:23.906Z,9.89
2022-10-28T02:39:56.711Z,9.87
2022-10-28T02:42:28.672Z,9.78
2022-10-28T02:45:03.174Z,9.78
2022-10-28T02:47:38.846Z,9.73
2022-10-28T02:50:14.194Z,9.66
2022-10-28T02:52:46.780Z,9.56
2022-10-28T02:55:15.168Z,9.58
2022-10-28T02:57:48.543Z,9.59
2022-10-28T03:00:19.242Z,9.55
2022-10-28T03:02:47.533Z,9.51
2022-10-28T03:05:17.306Z,9.50
2022-10-28T03:07:45.401Z,9.48
2022-10-28T03:10:13.458Z,9.45
2022-10-28T03:12:41.468Z,9.42
2022-10-28T03:15:10.418Z,9.44
2022-10-28T03:17:38.438Z,9.40
2022-10-28T03:20:07.806Z,9.11
2022-10-28T03:22:37.373Z,8.76
2022-10-28T03:25:06.426Z,9.00
2022-10-28T03:27:34.501Z,9.16
2022-10-28T03:30:02.561Z,9.15
2022-10-28T03:32:30.594Z,9.05
2022-10-28T03:34:58.689Z,8.91
2022-10-28T03:37:26.852Z,9.06
2022-10-28T03:39:56.346Z,9.14
2022-10-28T03:42:24.811Z,9.18
2022-10-28T03:44:52.845Z,9.22
2022-10-28T03:47:20.816Z,9.15
2022-10-28T03:49:48.863Z,9.05
2022-10-28T03:52:16.916Z,8.92
2022-10-28T03:54:45.053Z,8.99
2022-10-28T03:57:14.603Z,8.91
2022-10-28T03:59:42.670Z,8.58
2022-10-28T04:02:10.923Z,8.71
2022-10-28T04:04:38.956Z,8.96
2022-10-28T04:07:06.925Z,9.12
2022-10-28T04:09:34.889Z,9.12
2022-10-28T04:12:03.033Z,9.03
2022-10-28T04:14:32.466Z,9.13
2022-10-28T04:17:00.519Z,9.24
2022-10-28T04:19:28.560Z,9.35
2022-10-28T04:21:56.612Z,9.40
2022-10-28T04:24:24.610Z,9.40
2022-10-28T04:26:52.694Z,9.44
2022-10-28T04:29:20.741Z,9.42
2022-10-28T04:31:52.270Z,9.41
2022-10-28T04:34:20.834Z,9.36
2022-10-28T04:36:48.880Z,9.33
2022-10-28T04:39:17.418Z,9.34
2022-10-28T04:41:45.580Z,9.37
2022-10-28T04:44:13.685Z,9.41
2022-10-28T04:46:41.782Z,9.43
2022-10-28T04:49:11.604Z,9.45
2022-10-28T04:51:39.611Z,9.46
2022-10-28T04:54:07.917Z,9.49
2022-10-28T04:56:35.989Z,9.49
2022-10-28T04:59:03.993Z,9.54
2022-10-28T05:01:32.061Z,9.57
2022-10-28T05:04:00.036Z,9.58
2022-10-28T05:06:29.398Z,9.56
2022-10-28T05:08:57.829Z,9.54
2022-10-28T05:11:26.114Z,9.55
2022-10-28T05:13:54.321Z,9.55
2022-10-28T05:16:22.425Z,9.60
2022-10-28T05:18:50.488Z,9.65
2022-10-28T05:21:18.514Z,9.63
2022-10-28T05:23:48.206Z,9.68
2022-10-28T05:26:16.289Z,9.72
2022-10-28T05:28:44.362Z,9.75
2022-10-28T05:31:12.292Z,9.79
2022-10-28T05:33:40.247Z,9.86
2022-10-28T05:36:09.497Z,9.89
2022-10-28T05:38:37.513Z,10.00
2022-10-28T05:41:07.282Z,10.07
2022-10-28T05:43:35.294Z,10.17
2022-10-28T05:46:03.943Z,10.25
2022-10-28T05:48:32.122Z,10.36
2022-10-28T05:51:00.102Z,10.28
2022-10-28T05:53:28.016Z,10.57
2022-10-28T05:55:55.934Z,10.72
2022-10-28T05:58:25.224Z,10.78
2022-10-28T06:00:53.263Z,10.97
2022-10-28T06:03:21.275Z,11.13
2022-10-28T06:05:49.372Z,11.23
2022-10-28T06:08:17.396Z,11.28
2022-10-28T06:10:53.675Z,11.49
2022-10-28T06:13:21.865Z,11.65
2022-10-28T06:15:55.326Z,11.79
2022-10-28T06:18:24.220Z,11.97
2022-10-28T06:20:53.681Z,12.15
2022-10-28T06:23:21.898Z,12.36
2022-10-28T06:25:50.285Z,12.51
2022-10-28T06:28:18.238Z,12.62
2022-10-28T06:30:46.147Z,12.73
2022-10-28T06:33:15.459Z,12.80
2022-10-28T06:35:43.659Z,12.95
2022-10-28T06:38:12.009Z,13.14
2022-10-28T06:40:39.942Z,13.25
2022-10-28T06:43:13.038Z,13.44
2022-10-28T06:45:41.065Z,13.71
2022-10-28T06:48:11.752Z,13.74
2022-10-28T06:50:41.317Z,13.79
2022-10-28T06:53:10.397Z,13.84
2022-10-28T06:55:38.335Z,14.07
2022-10-28T06:58:06.324Z,14.16
2022-10-28T07:00:34.934Z,14.42
2022-10-28T07:03:03.027Z,14.66
2022-10-28T07:05:31.075Z,14.79
2022-10-28T07:08:00.430Z,14.97
2022-10-28T07:10:28.655Z,15.12
2022-10-28T07:12:56.969Z,15.28
2022-10-28T07:15:25.093Z,15.43
2022-10-28T07:17:54.354Z,15.56
2022-10-28T07:20:22.816Z,15.73
2022-10-28T07:22:57.126Z,15.88
2022-10-28T07:25:26.736Z,16.06
2022-10-28T07:27:55.125Z,16.25
2022-10-28T07:30:23.290Z,16.35
2022-10-28T07:32:51.585Z,16.46
2022-10-28T07:35:19.794Z,16.63
2022-10-28T07:37:48.127Z,16.78
2022-10-28T07:40:16.120Z,16.93
2022-10-28T07:42:45.400Z,17.13
2022-10-28T07:45:13.338Z,17.29
2022-10-28T07:47:41.420Z,17.44
2022-10-28T07:50:11.160Z,17.56
2022-10-28T07:52:39.736Z,17.71
2022-10-28T07:55:08.922Z,17.92
2022-10-28T07:57:36.854Z,18.06
2022-10-28T08:00:08.038Z,18.12
2022-10-28T08:02:36.001Z,17.97
2022-10-28T08:05:04.079Z,18.08
2022-10-28T08:07:34.908Z,18.19
2022-10-28T08:10:06.587Z,18.32
2022-10-28T08:12:34.952Z,18.03
2022-10-28T08:15:02.948Z,18.07
2022-10-28T08:17:32.246Z,18.09
2022-10-28T08:20:00.150Z,18.22
2022-10-28T08:22:28.056Z,18.26
2022-10-28T08:24:55.980Z,18.33
2022-10-28T08:27:23.893Z,18.59
2022-10-28T08:29:53.411Z,18.76
2022-10-28T08:32:21.355Z,18.95
2022-10-28T08:34:50.699Z,19.10
2022-10-28T08:37:18.661Z,19.09
2022-10-28T08:39:46.767Z,19.24
2022-10-28T08:42:30.087Z,19.35
2022-10-28T08:45:21.476Z,19.38
2022-10-28T08:50:33.977Z,19.49
2022-10-28T08:53:06.056Z,19.41
2022-10-28T08:55:37.822Z,19.38
2022-10-28T08:58:12.475Z,19.37
2022-10-28T09:00:41.427Z,19.53
2022-10-28T09:03:20.641Z,19.62
2022-10-28T09:05:55.239Z,19.82
2022-10-28T09:08:25.547Z,19.82
2022-10-28T09:11:28.159Z,19.72
2022-10-28T09:14:10.579Z,19.78
2022-10-28T09:16:46.151Z,19.96
2022-10-28T09:19:26.236Z,19.76
2022-10-28T09:22:09.415Z,19.86
2022-10-28T09:24:45.668Z,19.95
2022-10-28T09:27:23.811Z,20.17
2022-10-28T09:30:01.656Z,19.80
2022-10-28T09:32:41.768Z,19.85
2022-10-28T09:35:14.602Z,20.05
2022-10-28T09:37:48.229Z,20.27
2022-10-28T09:40:21.647Z,20.34
2022-10-28T09:43:01.639Z,19.96
2022-10-28T09:45:33.186Z,19.91
2022-10-28T09:48:04.788Z,19.92
2022-10-28T09:50:34.492Z,19.79
2022-10-28T09:53:11.056Z,20.03
2022-10-28T09:55:39.194Z,19.83
2022-10-28T09:58:07.192Z,20.02
2022-10-28T10:00:35.260Z,20.08
2022-10-28T10:03:03.432Z,20.26
2022-10-28T10:05:33.925Z,20.29
2022-10-28T10:08:06.276Z,20.20
2022-10-28T10:10:49.856Z,20.39
2022-10-28T10:13:21.235Z,20.45
2022-10-28T10:15:53.959Z,20.51
2022-10-28T10:18:25.966Z,20.59
2022-10-28T10:20:58.686Z,20.57
2022-10-28T10:23:34.209Z,20.57
2022-10-28T10:26:09.549Z,20.63
2022-10-28T10:28:44.895Z,20.76
2022-10-28T10:31:20.272Z,20.72
2022-10-28T10:33:52.031Z,20.68
2022-10-28T10:36:23.766Z,20.71
2022-10-28T10:38:55.709Z,20.85
2022-10-28T10:41:36.897Z,20.83
2022-10-28T10:44:26.206Z,20.82
2022-10-28T10:47:19.769Z,20.89
2022-10-28T10:49:47.668Z,20.89
2022-10-28T10:52:20.369Z,21.02
2022-10-28T10:55:00.043Z,21.05
2022-10-28T10:57:28.791Z,20.70
2022-10-28T10:59:58.233Z,20.73
2022-10-28T11:02:29.413Z,20.73
2022-10-28T11:05:01.276Z,20.78
2022-10-28T11:07:30.839Z,20.97
2022-10-28T11:10:01.772Z,20.66
2022-10-28T11:12:32.299Z,20.66
2022-10-28T11:15:02.110Z,20.66
2022-10-28T11:20:02.879Z,20.68
2022-10-28T11:22:41.502Z,20.60
2022-10-28T11:25:27.542Z,20.66
2022-10-28T11:28:13.109Z,20.74
2022-10-28T11:30:54.719Z,20.69
2022-10-28T11:33:31.339Z,20.79
2022-10-28T11:36:09.445Z,20.72
2022-10-28T11:39:01.393Z,20.54
2022-10-28T11:41:45.022Z,20.71
2022-10-28T11:44:27.762Z,20.76
2022-10-28T11:47:11.129Z,20.80
2022-10-28T11:50:03.520Z,20.93
2022-10-28T11:52:45.584Z,20.73
2022-10-28T11:55:28.841Z,20.67
2022-10-28T11:58:07.415Z,20.42
2022-10-28T12:00:48.322Z,20.58
2022-10-28T12:03:36.359Z,20.34
2022-10-28T12:06:16.426Z,20.43
2022-10-28T12:09:14.646Z,20.44
2022-10-28T12:12:00.289Z,20.10
2022-10-28T12:14:38.255Z,20.24
2022-10-28T12:17:14.707Z,20.28
2022-10-28T12:19:49.340Z,20.24
2022-10-28T12:22:24.838Z,20.20
2022-10-28T12:24:54.426Z,20.09
2022-10-28T12:27:26.886Z,20.24
2022-10-28T12:30:00.968Z,20.20
2022-10-28T12:32:32.199Z,20.17
2022-10-28T12:35:06.506Z,19.78
2022-10-28T12:37:42.211Z,19.74
2022-10-28T12:40:17.470Z,20.07
2022-10-28T12:42:50.369Z,19.94
2022-10-28T12:45:22.639Z,19.80
2022-10-28T12:47:59.607Z,19.71
2022-10-28T12:50:33.512Z,19.88
2022-10-28T12:53:18.074Z,19.74
2022-10-28T12:55:52.717Z,19.80
2022-10-28T12:58:28.333Z,19.91
2022-10-28T13:01:02.106Z,19.83
2022-10-28T13:03:29.850Z,19.83
2022-10-28T13:06:13.417Z,19.59
2022-10-28T13:09:18.945Z,19.68
2022-10-28T13:12:13.584Z,19.40
2022-10-28T13:15:15.016Z,19.17
2022-10-28T13:17:58.093Z,19.03
2022-10-28T13:20:39.705Z,19.12
2022-10-28T13:23:17.770Z,19.29
2022-10-28T13:25:59.630Z,19.09
2022-10-28T13:28:32.934Z,19.06
2022-10-28T13:31:03.395Z,18.95
2022-10-28T13:33:35.987Z,18.78
2022-10-28T13:36:17.239Z,18.84
2022-10-28T13:38:52.278Z,18.56
2022-10-28T13:41:35.873Z,18.55
2022-10-28T13:44:30.827Z,18.72
2022-10-28T13:47:27.447Z,18.50
2022-10-28T13:50:16.549Z,18.47
2022-10-28T13:52:45.958Z,18.22
2022-10-28T13:55:25.248Z,18.26
2022-10-28T13:58:00.326Z,18.30
2022-10-28T14:00:36.781Z,18.17
2022-10-28T14:03:06.786Z,18.14
2022-10-28T14:05:58.513Z,18.08
2022-10-28T14:08:31.031Z,18.34
2022-10-28T14:11:05.957Z,18.31
2022-10-28T14:13:38.355Z,18.41
2022-10-28T14:16:25.158Z,18.42
2022-10-28T14:18:56.882Z,18.39
2022-10-28T14:21:26.423Z,18.39
2022-10-28T14:24:13.586Z,18.37
2022-10-28T14:27:26.316Z,18.06
2022-10-28T14:30:23.799Z,18.08
2022-10-28T14:33:00.648Z,18.13
2022-10-28T14:35:38.713Z,18.09
2022-10-28T14:38:58.248Z,17.98
2022-10-28T14:41:47.024Z,17.92
2022-10-28T14:44:36.054Z,17.85
2022-10-28T14:47:20.075Z,17.80
2022-10-28T14:50:01.754Z,17.73
2022-10-28T14:52:32.532Z,17.66
2022-10-28T14:55:05.211Z,17.55
2022-10-28T14:57:35.056Z,17.43
2022-10-28T15:00:05.571Z,17.34
2022-10-28T15:02:35.419Z,17.26
2022-10-28T15:05:14.883Z,17.18
2022-10-28T15:07:43.658Z,17.10
2022-10-28T15:10:23.014Z,16.93
2022-10-28T15:12:51.815Z,16.93
2022-10-28T15:15:22.306Z,16.74
2022-10-28T15:17:51.013Z,16.73
2022-10-28T15:20:24.708Z,16.71
2022-10-28T15:22:52.997Z,16.63
2022-10-28T15:25:24.001Z,16.54
2022-10-28T15:27:53.508Z,16.48
2022-10-28T15:30:24.857Z,16.40
2022-10-28T15:32:53.559Z,16.34
2022-10-28T15:35:40.178Z,16.25
2022-10-28T15:38:27.111Z,16.18
2022-10-28T15:40:56.819Z,16.05
2022-10-28T15:43:27.625Z,15.99
2022-10-28T15:45:56.097Z,15.81
2022-10-28T15:48:26.016Z,15.88
2022-10-28T15:51:15.338Z,15.81
2022-10-28T15:53:44.340Z,15.69
2022-10-28T15:56:26.633Z,15.55
2022-10-28T15:59:13.967Z,15.51
2022-10-28T16:01:42.382Z,15.37
2022-10-28T16:04:40.044Z,15.23
2022-10-28T16:07:09.646Z,15.15
2022-10-28T16:09:43.362Z,15.18
2022-10-28T16:12:17.087Z,15.05
2022-10-28T16:14:46.660Z,14.98
2022-10-28T16:17:18.124Z,14.91
2022-10-28T16:19:52.083Z,14.84
2022-10-28T16:22:20.503Z,14.80
2022-10-28T16:24:48.421Z,14.73
2022-10-28T16:27:22.893Z,14.62
2022-10-28T16:29:51.669Z,14.58
2022-10-28T16:32:26.075Z,14.62
2022-10-28T16:34:53.944Z,14.53
2022-10-28T16:37:24.551Z,14.49
2022-10-28T16:39:52.881Z,14.47
2022-10-28T16:42:23.368Z,14.33
2022-10-28T16:44:51.796Z,14.28
2022-10-28T16:47:21.038Z,14.17
2022-10-28T16:49:54.204Z,14.20
2022-10-28T16:52:26.865Z,14.15
2022-10-28T16:54:54.735Z,14.13
2022-10-28T16:59:57.609Z,14.00
2022-10-28T17:02:28.495Z,13.95
2022-10-28T17:04:57.116Z,13.87
2022-10-28T17:07:25.794Z,13.81
2022-10-28T17:09:53.766Z,13.72
2022-10-28T17:12:24.887Z,13.60
2022-10-28T17:14:53.079Z,13.51
2022-10-28T17:17:21.020Z,13.44
2022-10-28T17:19:49.058Z,13.37
2022-10-28T17:22:17.053Z,13.27
2022-10-28T17:24:44.969Z,13.23
2022-10-28T17:27:13.030Z,13.15
2022-10-28T17:29:42.452Z,13.07
2022-10-28T17:32:10.507Z,13.14
2022-10-28T17:34:38.512Z,13.11
2022-10-28T17:37:07.866Z,13.10
2022-10-28T17:39:35.979Z,13.01
2022-10-28T17:42:04.335Z,13.00
2022-10-28T17:44:32.252Z,12.97
2022-10-28T17:47:01.641Z,12.89
2022-10-28T17:49:29.981Z,12.86
2022-10-28T17:51:57.919Z,12.86
2022-10-28T17:54:25.913Z,12.82
2022-10-28T17:56:53.912Z,12.76
2022-10-28T17:59:21.940Z,12.74
2022-10-28T18:01:50.031Z,12.67
2022-10-28T18:04:20.254Z,12.58
2022-10-28T18:06:48.184Z,12.51
2022-10-28T18:09:16.134Z,12.45
2022-10-28T18:11:44.124Z,12.45
2022-10-28T18:14:12.081Z,12.41
2022-10-28T18:16:40.026Z,12.37
2022-10-28T18:19:08.834Z,12.38
2022-10-28T18:21:38.139Z,12.30
2022-10-28T18:24:06.571Z,12.39
2022-10-28T18:26:36.325Z,12.43
2022-10-28T18:29:05.004Z,12.42
2022-10-28T18:31:34.210Z,12.39
2022-10-28T18:34:03.038Z,12.31
2022-10-28T18:36:34.586Z,12.27
2022-10-28T18:39:05.807Z,12.29
2022-10-28T18:41:36.173Z,12.34
2022-10-28T18:44:05.676Z,12.37
2022-10-28T18:46:37.620Z,12.36
2022-10-28T18:49:06.443Z,12.37
2022-10-28T18:51:34.961Z,12.49
2022-10-28T18:54:05.099Z,12.44
2022-10-28T18:56:34.335Z,12.36
2022-10-28T18:59:04.122Z,12.11
2022-10-28T19:01:33.159Z,12.10
2022-10-28T19:04:02.725Z,12.21
2022-10-28T19:06:33.315Z,12.29
2022-10-28T19:09:05.414Z,12.29
2022-10-28T19:11:36.006Z,12.18
2022-10-28T19:14:06.427Z,12.20
2022-10-28T19:16:35.113Z,12.08
2022-10-28T19:19:05.439Z,12.02
2022-10-28T19:21:33.823Z,12.09
2022-10-28T19:24:01.790Z,12.18
2022-10-28T19:26:32.045Z,12.20
2022-10-28T19:29:00.424Z,12.14
2022-10-28T19:31:30.189Z,12.06
2022-10-28T19:33:58.119Z,11.95
2022-10-28T19:36:27.595Z,11.97
2022-10-28T19:38:56.484Z,11.94
2022-10-28T19:41:25.716Z,11.83
2022-10-28T19:43:58.226Z,11.81
2022-10-28T19:46:27.927Z,11.89
2022-10-28T19:48:57.681Z,11.98
2022-10-28T19:51:28.325Z,12.03
2022-10-28T19:53:58.129Z,12.07
2022-10-28T19:56:26.924Z,11.94
2022-10-28T19:58:57.939Z,11.89
2022-10-28T20:01:27.700Z,11.72
2022-10-28T20:03:56.744Z,11.82
2022-10-28T20:06:26.479Z,11.91
2022-10-28T20:08:54.420Z,11.94
2022-10-28T20:11:26.301Z,11.94
2022-10-28T20:13:57.902Z,11.92
2022-10-28T20:16:26.620Z,11.91
2022-10-28T20:18:55.277Z,11.83
2022-10-28T20:21:24.794Z,11.82
2022-10-28T20:23:55.052Z,11.66
2022-10-28T20:26:24.813Z,11.50
2022-10-28T20:28:53.063Z,11.36
2022-10-28T20:31:24.054Z,11.29
2022-10-28T20:33:53.170Z,11.29
2022-10-28T20:36:25.818Z,11.26
2022-10-28T20:38:57.341Z,11.37
2022-10-28T20:41:26.407Z,11.43
2022-10-28T20:43:55.158Z,11.44
2022-10-28T20:46:25.831Z,11.58
2022-10-28T20:48:54.974Z,11.64
2022-10-28T20:51:23.298Z,11.60
2022-10-28T20:53:51.411Z,11.54
2022-10-28T20:56:21.291Z,11.48
2022-10-28T20:58:49.331Z,11.42
2022-10-28T21:01:19.298Z,11.36
2022-10-28T21:03:49.495Z,11.31
2022-10-28T21:06:19.324Z,11.26
2022-10-28T21:08:47.293Z,11.19
2022-10-28T21:11:16.980Z,11.19
2022-10-28T21:13:46.826Z,11.13
2022-10-28T21:16:14.741Z,11.10
2022-10-28T21:18:42.651Z,11.10
2022-10-28T21:21:13.107Z,11.00
2022-10-28T21:23:41.126Z,10.99
2022-10-28T21:26:11.684Z,10.94
2022-10-28T21:28:41.439Z,10.88
2022-10-28T21:31:11.516Z,10.84
2022-10-28T21:33:40.230Z,10.80
2022-10-28T21:36:11.035Z,10.88
2022-10-28T21:38:40.592Z,10.88
2022-10-28T21:41:12.051Z,10.86
2022-10-28T21:43:41.728Z,10.81
2022-10-28T21:46:10.019Z,10.82
2022-10-28T21:48:39.187Z,10.77
2022-10-28T21:51:13.499Z,10.68
2022-10-28T21:53:45.078Z,10.73
2022-10-28T21:56:17.493Z,10.66
2022-10-28T21:58:46.766Z,10.76
2022-10-28T22:01:16.925Z,10.77
2022-10-28T22:03:44.980Z,10.68
2022-10-28T22:06:12.930Z,10.72
2022-10-28T22:08:40.916Z,10.76
2022-10-28T22:11:13.792Z,10.77
2022-10-28T22:13:41.863Z,10.77
2022-10-28T22:16:12.692Z,10.78
2022-10-28T22:18:41.004Z,10.73
2022-10-28T22:21:11.259Z,10.66
2022-10-28T22:23:39.617Z,10.60
2022-10-28T22:26:12.203Z,10.47
2022-10-28T22:28:40.687Z,10.48
2022-10-28T22:31:10.452Z,10.42
2022-10-28T22:33:38.731Z,10.34
2022-10-28T22:36:08.936Z,10.40
2022-10-28T22:38:37.131Z,10.48
2022-10-28T22:41:06.614Z,10.49
2022-10-28T22:43:36.187Z,10.54
2022-10-28T22:46:04.493Z,10.57
2022-10-28T22:48:33.587Z,10.58
2022-10-28T22:51:02.036Z,10.64
2022-10-28T22:53:30.137Z,10.67
2022-10-28T22:55:58.519Z,10.71
2022-10-28T22:58:28.398Z,10.69
2022-10-28T23:01:07.758Z,10.67
2022-10-28T23:03:37.196Z,10.70
2022-10-28T23:06:05.722Z,10.66
2022-10-28T23:08:33.689Z,10.58
2022-10-28T23:11:01.762Z,10.60
2022-10-28T23:13:29.896Z,10.63
2022-10-28T23:15:57.957Z,10.66
2022-10-28T23:18:29.033Z,10.66
2022-10-28T23:20:56.964Z,10.42
2022-10-28T23:23:24.891Z,10.64
2022-10-28T23:25:53.751Z,10.62
2022-10-28T23:28:21.810Z,10.60
2022-10-28T23:30:49.780Z,10.56
2022-10-28T23:33:17.767Z,10.52
2022-10-28T23:35:54.730Z,10.50
2022-10-28T23:38:22.817Z,10.51
2022-10-28T23:40:58.181Z,10.42
2022-10-28T23:43:26.270Z,10.40
2022-10-28T23:45:54.245Z,10.35
2022-10-28T23:48:22.743Z,10.30
2022-10-28T23:50:52.577Z,10.25
2022-10-28T23:53:21.166Z,10.22
2022-10-28T23:55:50.176Z,10.13
2022-10-28T23:58:20.171Z,10.13
